sensor_id;sensor_type;location;lat;lon;timestamp;P1;durP1;ratioP1;P2;durP2;ratioP2
16524;SDS011;8375;33.594;-117.718;2022-11-18T00:01:28;6.03;;;1.30;;
16524;SDS011;8375;33.594;-117.718;2022-11-18T00:03:57;2.95;;;1.30;;
16524;SDS011;8375;33.594;-117.718;2022-11-18T00:06:27;2.65;;;0.95;;
16524;SDS011;8375;33.594;-117.718;2022-11-18T00:08:56;2.22;;;0.95;;
16524;SDS011;8375;33.594;-117.718;2022-11-18T00:11:28;2.72;;;1.00;;
16524;SDS011;8375;33.594;-117.718;2022-11-18T00:14:14;3.38;;;1.00;;
16524;SDS011;8375;33.594;-117.718;2022-11-18T00:16:48;2.03;;;0.90;;
16524;SDS011;8375;33.594;-117.718;2022-11-18T00:19:18;1.40;;;0.90;;
16524;SDS011;8375;33.594;-117.718;2022-11-18T00:21:48;1.75;;;1.00;;
16524;SDS011;8375;33.594;-117.718;2022-11-18T00:24:16;1.90;;;0.73;;
16524;SDS011;8375;33.594;-117.718;2022-11-18T00:26:47;1.52;;;0.80;;
16524;SDS011;8375;33.594;-117.718;2022-11-18T00:29:16;3.05;;;0.85;;
16524;SDS011;8375;33.594;-117.718;2022-11-18T00:31:45;6.27;;;3.37;;
16524;SDS011;8375;33.594;-117.718;2022-11-18T00:34:14;8.53;;;6.27;;
16524;SDS011;8375;33.594;-117.718;2022-11-18T00:36:44;6.67;;;4.40;;
16524;SDS011;8375;33.594;-117.718;2022-11-18T00:39:14;11.80;;;9.27;;
16524;SDS011;8375;33.594;-117.718;2022-11-18T00:41:43;10.60;;;7.18;;
16524;SDS011;8375;33.594;-117.718;2022-11-18T00:44:31;6.03;;;4.47;;
16524;SDS011;8375;33.594;-117.718;2022-11-18T00:47:00;8.77;;;5.17;;
16524;SDS011;8375;33.594;-117.718;2022-11-18T00:49:28;5.13;;;3.80;;
16524;SDS011;8375;33.594;-117.718;2022-11-18T00:51:57;5.73;;;2.90;;
16524;SDS011;8375;33.594;-117.718;2022-11-18T00:54:25;4.47;;;2.60;;
16524;SDS011;8375;33.594;-117.718;2022-11-18T00:56:54;3.97;;;2.63;;
16524;SDS011;8375;33.594;-117.718;2022-11-18T00:59:23;3.07;;;1.77;;
16524;SDS011;8375;33.594;-117.718;2022-11-18T01:01:53;3.20;;;1.40;;
16524;SDS011;8375;33.594;-117.718;2022-11-18T01:04:21;2.57;;;1.60;;
16524;SDS011;8375;33.594;-117.718;2022-11-18T01:06:50;1.47;;;1.33;;
16524;SDS011;8375;33.594;-117.718;2022-11-18T01:09:19;4.20;;;1.30;;
16524;SDS011;8375;33.594;-117.718;2022-11-18T01:11:47;3.47;;;1.53;;
16524;SDS011;8375;33.594;-117.718;2022-11-18T01:14:33;1.93;;;1.20;;
16524;SDS011;8375;33.594;-117.718;2022-11-18T01:17:03;4.63;;;1.20;;
16524;SDS011;8375;33.594;-117.718;2022-11-18T01:19:32;1.40;;;1.00;;
16524;SDS011;8375;33.594;-117.718;2022-11-18T01:22:01;3.43;;;1.10;;
16524;SDS011;8375;33.594;-117.718;2022-11-18T01:24:30;3.50;;;1.10;;
16524;SDS011;8375;33.594;-117.718;2022-11-18T01:27:00;1.70;;;0.80;;
16524;SDS011;8375;33.594;-117.718;2022-11-18T01:29:29;3.27;;;0.83;;
16524;SDS011;8375;33.594;-117.718;2022-11-18T01:31:57;3.30;;;0.90;;
16524;SDS011;8375;33.594;-117.718;2022-11-18T01:34:28;1.27;;;0.80;;
16524;SDS011;8375;33.594;-117.718;2022-11-18T01:36:56;1.60;;;1.00;;
16524;SDS011;8375;33.594;-117.718;2022-11-18T01:39:25;1.73;;;0.83;;
16524;SDS011;8375;33.594;-117.718;2022-11-18T01:41:54;7.47;;;1.47;;
16524;SDS011;8375;33.594;-117.718;2022-11-18T01:47:35;4.00;;;1.83;;
16524;SDS011;8375;33.594;-117.718;2022-11-18T01:50:09;6.70;;;2.20;;
16524;SDS011;8375;33.594;-117.718;2022-11-18T01:52:39;4.80;;;1.47;;
16524;SDS011;8375;33.594;-117.718;2022-11-18T01:55:10;1.63;;;1.10;;
16524;SDS011;8375;33.594;-117.718;2022-11-18T01:57:43;3.43;;;1.27;;
16524;SDS011;8375;33.594;-117.718;2022-11-18T02:00:14;3.50;;;1.47;;
16524;SDS011;8375;33.594;-117.718;2022-11-18T02:02:43;5.33;;;1.80;;
16524;SDS011;8375;33.594;-117.718;2022-11-18T02:05:14;1.37;;;1.07;;
16524;SDS011;8375;33.594;-117.718;2022-11-18T02:07:44;2.43;;;1.10;;
16524;SDS011;8375;33.594;-117.718;2022-11-18T02:10:16;2.87;;;1.20;;
16524;SDS011;8375;33.594;-117.718;2022-11-18T02:12:48;3.13;;;1.30;;
16524;SDS011;8375;33.594;-117.718;2022-11-18T02:15:17;2.83;;;1.20;;
16524;SDS011;8375;33.594;-117.718;2022-11-18T02:17:54;2.50;;;1.00;;
16524;SDS011;8375;33.594;-117.718;2022-11-18T02:20:31;3.10;;;1.13;;
16524;SDS011;8375;33.594;-117.718;2022-11-18T02:23:18;3.83;;;1.10;;
16524;SDS011;8375;33.594;-117.718;2022-11-18T02:29:12;5.80;;;1.60;;
16524;SDS011;8375;33.594;-117.718;2022-11-18T02:31:45;3.17;;;1.50;;
16524;SDS011;8375;33.594;-117.718;2022-11-18T02:34:23;4.97;;;1.60;;
16524;SDS011;8375;33.594;-117.718;2022-11-18T02:37:08;6.10;;;2.30;;
16524;SDS011;8375;33.594;-117.718;2022-11-18T02:39:42;6.40;;;2.50;;
16524;SDS011;8375;33.594;-117.718;2022-11-18T02:42:14;6.00;;;2.40;;
16524;SDS011;8375;33.594;-117.718;2022-11-18T02:44:46;3.23;;;1.90;;
16524;SDS011;8375;33.594;-117.718;2022-11-18T02:47:19;5.80;;;2.17;;
16524;SDS011;8375;33.594;-117.718;2022-11-18T02:49:50;2.57;;;1.40;;
16524;SDS011;8375;33.594;-117.718;2022-11-18T02:52:22;6.97;;;2.00;;
16524;SDS011;8375;33.594;-117.718;2022-11-18T02:54:52;2.57;;;1.50;;
16524;SDS011;8375;33.594;-117.718;2022-11-18T02:57:21;3.33;;;1.50;;
16524;SDS011;8375;33.594;-117.718;2022-11-18T02:59:55;1.80;;;1.23;;
16524;SDS011;8375;33.594;-117.718;2022-11-18T03:02:23;3.43;;;1.70;;
16524;SDS011;8375;33.594;-117.718;2022-11-18T03:04:53;2.97;;;1.60;;
16524;SDS011;8375;33.594;-117.718;2022-11-18T03:07:25;5.97;;;2.07;;
16524;SDS011;8375;33.594;-117.718;2022-11-18T03:09:58;4.23;;;1.90;;
16524;SDS011;8375;33.594;-117.718;2022-11-18T03:12:30;4.13;;;1.53;;
16524;SDS011;8375;33.594;-117.718;2022-11-18T03:15:10;5.50;;;1.53;;
16524;SDS011;8375;33.594;-117.718;2022-11-18T03:17:47;4.30;;;1.60;;
16524;SDS011;8375;33.594;-117.718;2022-11-18T03:20:22;9.37;;;1.63;;
16524;SDS011;8375;33.594;-117.718;2022-11-18T03:22:54;3.23;;;1.30;;
16524;SDS011;8375;33.594;-117.718;2022-11-18T03:25:33;9.13;;;1.70;;
16524;SDS011;8375;33.594;-117.718;2022-11-18T03:28:09;12.50;;;2.10;;
16524;SDS011;8375;33.594;-117.718;2022-11-18T03:30:46;8.77;;;1.70;;
16524;SDS011;8375;33.594;-117.718;2022-11-18T03:33:23;6.23;;;1.73;;
16524;SDS011;8375;33.594;-117.718;2022-11-18T03:35:57;5.83;;;2.00;;
16524;SDS011;8375;33.594;-117.718;2022-11-18T03:38:30;5.33;;;1.70;;
16524;SDS011;8375;33.594;-117.718;2022-11-18T03:41:05;6.57;;;1.80;;
16524;SDS011;8375;33.594;-117.718;2022-11-18T03:43:37;5.63;;;1.40;;
16524;SDS011;8375;33.594;-117.718;2022-11-18T03:46:12;6.20;;;2.10;;
16524;SDS011;8375;33.594;-117.718;2022-11-18T03:48:46;4.63;;;1.60;;
16524;SDS011;8375;33.594;-117.718;2022-11-18T03:51:18;3.27;;;1.60;;
16524;SDS011;8375;33.594;-117.718;2022-11-18T03:53:52;3.20;;;1.47;;
16524;SDS011;8375;33.594;-117.718;2022-11-18T03:56:27;5.97;;;2.13;;
16524;SDS011;8375;33.594;-117.718;2022-11-18T03:59:02;5.40;;;1.97;;
16524;SDS011;8375;33.594;-117.718;2022-11-18T04:01:39;4.37;;;2.23;;
16524;SDS011;8375;33.594;-117.718;2022-11-18T04:04:11;3.27;;;1.80;;
16524;SDS011;8375;33.594;-117.718;2022-11-18T04:06:41;4.67;;;1.83;;
16524;SDS011;8375;33.594;-117.718;2022-11-18T04:09:16;4.50;;;2.00;;
16524;SDS011;8375;33.594;-117.718;2022-11-18T04:11:48;6.07;;;2.10;;
16524;SDS011;8375;33.594;-117.718;2022-11-18T04:14:37;4.23;;;1.73;;
16524;SDS011;8375;33.594;-117.718;2022-11-18T04:17:10;3.40;;;1.93;;
16524;SDS011;8375;33.594;-117.718;2022-11-18T04:19:40;3.37;;;1.70;;
16524;SDS011;8375;33.594;-117.718;2022-11-18T04:22:10;3.97;;;1.60;;
16524;SDS011;8375;33.594;-117.718;2022-11-18T04:24:39;5.50;;;1.63;;
16524;SDS011;8375;33.594;-117.718;2022-11-18T04:27:08;4.03;;;1.83;;
16524;SDS011;8375;33.594;-117.718;2022-11-18T04:29:37;4.03;;;2.20;;
16524;SDS011;8375;33.594;-117.718;2022-11-18T04:32:06;5.77;;;1.77;;
16524;SDS011;8375;33.594;-117.718;2022-11-18T04:34:36;4.23;;;1.90;;
16524;SDS011;8375;33.594;-117.718;2022-11-18T04:37:05;11.87;;;2.33;;
16524;SDS011;8375;33.594;-117.718;2022-11-18T04:39:33;3.33;;;1.70;;
16524;SDS011;8375;33.594;-117.718;2022-11-18T04:42:02;2.97;;;1.67;;
16524;SDS011;8375;33.594;-117.718;2022-11-18T04:44:31;4.53;;;1.87;;
16524;SDS011;8375;33.594;-117.718;2022-11-18T04:47:01;3.67;;;1.80;;
16524;SDS011;8375;33.594;-117.718;2022-11-18T04:49:31;6.33;;;2.10;;
16524;SDS011;8375;33.594;-117.718;2022-11-18T04:52:02;4.13;;;2.13;;
16524;SDS011;8375;33.594;-117.718;2022-11-18T04:54:32;4.50;;;1.87;;
16524;SDS011;8375;33.594;-117.718;2022-11-18T04:57:00;3.70;;;2.10;;
16524;SDS011;8375;33.594;-117.718;2022-11-18T04:59:29;7.13;;;2.23;;
16524;SDS011;8375;33.594;-117.718;2022-11-18T05:01:58;3.83;;;2.17;;
16524;SDS011;8375;33.594;-117.718;2022-11-18T05:04:28;3.67;;;2.10;;
16524;SDS011;8375;33.594;-117.718;2022-11-18T05:06:58;6.50;;;2.00;;
16524;SDS011;8375;33.594;-117.718;2022-11-18T05:09:29;3.23;;;2.40;;
16524;SDS011;8375;33.594;-117.718;2022-11-18T05:11:58;5.90;;;2.70;;
16524;SDS011;8375;33.594;-117.718;2022-11-18T05:14:44;6.50;;;2.77;;
16524;SDS011;8375;33.594;-117.718;2022-11-18T05:17:12;6.43;;;2.70;;
16524;SDS011;8375;33.594;-117.718;2022-11-18T05:19:41;7.20;;;3.57;;
16524;SDS011;8375;33.594;-117.718;2022-11-18T05:22:09;4.73;;;3.10;;
16524;SDS011;8375;33.594;-117.718;2022-11-18T05:24:40;6.50;;;2.90;;
16524;SDS011;8375;33.594;-117.718;2022-11-18T05:27:09;3.70;;;2.30;;
16524;SDS011;8375;33.594;-117.718;2022-11-18T05:29:39;5.50;;;2.47;;
16524;SDS011;8375;33.594;-117.718;2022-11-18T05:32:07;5.23;;;2.77;;
16524;SDS011;8375;33.594;-117.718;2022-11-18T05:34:36;5.57;;;2.47;;
16524;SDS011;8375;33.594;-117.718;2022-11-18T05:37:05;8.13;;;2.60;;
16524;SDS011;8375;33.594;-117.718;2022-11-18T05:39:34;5.47;;;2.00;;
16524;SDS011;8375;33.594;-117.718;2022-11-18T05:42:05;7.80;;;2.30;;
16524;SDS011;8375;33.594;-117.718;2022-11-18T05:44:51;7.13;;;3.00;;
16524;SDS011;8375;33.594;-117.718;2022-11-18T05:47:21;5.27;;;2.23;;
16524;SDS011;8375;33.594;-117.718;2022-11-18T05:49:52;7.47;;;3.07;;
16524;SDS011;8375;33.594;-117.718;2022-11-18T05:52:21;5.97;;;2.53;;
16524;SDS011;8375;33.594;-117.718;2022-11-18T05:54:50;4.13;;;2.43;;
16524;SDS011;8375;33.594;-117.718;2022-11-18T05:57:21;4.83;;;2.83;;
16524;SDS011;8375;33.594;-117.718;2022-11-18T05:59:49;3.63;;;2.13;;
16524;SDS011;8375;33.594;-117.718;2022-11-18T06:02:18;6.70;;;2.10;;
16524;SDS011;8375;33.594;-117.718;2022-11-18T06:04:51;4.60;;;2.10;;
16524;SDS011;8375;33.594;-117.718;2022-11-18T06:07:24;7.73;;;2.40;;
16524;SDS011;8375;33.594;-117.718;2022-11-18T06:10:05;5.10;;;2.17;;
16524;SDS011;8375;33.594;-117.718;2022-11-18T06:12:55;5.97;;;2.53;;
16524;SDS011;8375;33.594;-117.718;2022-11-18T06:15:29;9.13;;;2.40;;
16524;SDS011;8375;33.594;-117.718;2022-11-18T06:18:05;8.10;;;2.30;;
16524;SDS011;8375;33.594;-117.718;2022-11-18T06:20:37;4.67;;;2.50;;
16524;SDS011;8375;33.594;-117.718;2022-11-18T06:23:08;10.50;;;2.83;;
16524;SDS011;8375;33.594;-117.718;2022-11-18T06:25:38;9.60;;;2.70;;
16524;SDS011;8375;33.594;-117.718;2022-11-18T06:28:09;8.60;;;3.60;;
16524;SDS011;8375;33.594;-117.718;2022-11-18T06:30:41;6.43;;;2.67;;
16524;SDS011;8375;33.594;-117.718;2022-11-18T06:33:11;7.13;;;2.80;;
16524;SDS011;8375;33.594;-117.718;2022-11-18T06:35:40;4.67;;;2.57;;
16524;SDS011;8375;33.594;-117.718;2022-11-18T06:38:11;7.23;;;2.83;;
16524;SDS011;8375;33.594;-117.718;2022-11-18T06:40:40;6.13;;;2.80;;
16524;SDS011;8375;33.594;-117.718;2022-11-18T06:43:13;4.43;;;2.53;;
16524;SDS011;8375;33.594;-117.718;2022-11-18T06:45:58;6.63;;;3.00;;
16524;SDS011;8375;33.594;-117.718;2022-11-18T06:48:46;14.87;;;2.97;;
16524;SDS011;8375;33.594;-117.718;2022-11-18T06:51:14;10.60;;;3.30;;
16524;SDS011;8375;33.594;-117.718;2022-11-18T06:53:44;8.40;;;2.63;;
16524;SDS011;8375;33.594;-117.718;2022-11-18T06:56:15;8.93;;;2.63;;
16524;SDS011;8375;33.594;-117.718;2022-11-18T06:58:46;5.63;;;2.50;;
16524;SDS011;8375;33.594;-117.718;2022-11-18T07:01:20;8.27;;;2.40;;
16524;SDS011;8375;33.594;-117.718;2022-11-18T07:03:50;6.23;;;2.13;;
16524;SDS011;8375;33.594;-117.718;2022-11-18T07:06:20;12.53;;;2.70;;
16524;SDS011;8375;33.594;-117.718;2022-11-18T07:08:50;13.47;;;2.93;;
16524;SDS011;8375;33.594;-117.718;2022-11-18T07:11:19;8.60;;;2.83;;
16524;SDS011;8375;33.594;-117.718;2022-11-18T07:13:50;6.93;;;2.03;;
16524;SDS011;8375;33.594;-117.718;2022-11-18T07:16:19;5.10;;;2.47;;
16524;SDS011;8375;33.594;-117.718;2022-11-18T07:18:50;3.47;;;2.20;;
16524;SDS011;8375;33.594;-117.718;2022-11-18T07:21:20;6.33;;;2.13;;
16524;SDS011;8375;33.594;-117.718;2022-11-18T07:23:50;8.33;;;2.20;;
16524;SDS011;8375;33.594;-117.718;2022-11-18T07:26:20;11.17;;;2.83;;
16524;SDS011;8375;33.594;-117.718;2022-11-18T07:28:50;7.80;;;3.17;;
16524;SDS011;8375;33.594;-117.718;2022-11-18T07:31:20;11.00;;;3.40;;
16524;SDS011;8375;33.594;-117.718;2022-11-18T07:33:49;7.60;;;3.20;;
16524;SDS011;8375;33.594;-117.718;2022-11-18T07:36:19;7.73;;;3.40;;
16524;SDS011;8375;33.594;-117.718;2022-11-18T07:38:49;8.23;;;3.60;;
16524;SDS011;8375;33.594;-117.718;2022-11-18T07:41:18;4.77;;;2.73;;
16524;SDS011;8375;33.594;-117.718;2022-11-18T07:43:48;7.37;;;2.80;;
16524;SDS011;8375;33.594;-117.718;2022-11-18T07:46:21;7.83;;;2.50;;
16524;SDS011;8375;33.594;-117.718;2022-11-18T07:48:51;6.00;;;2.60;;
16524;SDS011;8375;33.594;-117.718;2022-11-18T07:51:21;5.03;;;2.63;;
16524;SDS011;8375;33.594;-117.718;2022-11-18T07:53:50;6.57;;;2.77;;
16524;SDS011;8375;33.594;-117.718;2022-11-18T07:56:20;6.43;;;2.90;;
16524;SDS011;8375;33.594;-117.718;2022-11-18T07:58:52;6.77;;;2.40;;
16524;SDS011;8375;33.594;-117.718;2022-11-18T08:01:23;5.47;;;2.30;;
16524;SDS011;8375;33.594;-117.718;2022-11-18T08:03:54;6.33;;;2.43;;
16524;SDS011;8375;33.594;-117.718;2022-11-18T08:06:23;6.23;;;2.33;;
16524;SDS011;8375;33.594;-117.718;2022-11-18T08:08:51;4.47;;;2.50;;
16524;SDS011;8375;33.594;-117.718;2022-11-18T08:11:20;4.47;;;2.27;;
16524;SDS011;8375;33.594;-117.718;2022-11-18T08:13:49;4.37;;;2.23;;
16524;SDS011;8375;33.594;-117.718;2022-11-18T08:16:20;3.23;;;2.43;;
16524;SDS011;8375;33.594;-117.718;2022-11-18T08:18:50;7.03;;;2.80;;
16524;SDS011;8375;33.594;-117.718;2022-11-18T08:21:19;6.47;;;2.60;;
16524;SDS011;8375;33.594;-117.718;2022-11-18T08:23:49;3.63;;;2.57;;
16524;SDS011;8375;33.594;-117.718;2022-11-18T08:26:19;3.37;;;2.27;;
16524;SDS011;8375;33.594;-117.718;2022-11-18T08:28:48;5.43;;;2.50;;
16524;SDS011;8375;33.594;-117.718;2022-11-18T08:31:19;4.00;;;2.27;;
16524;SDS011;8375;33.594;-117.718;2022-11-18T08:33:52;5.30;;;2.30;;
16524;SDS011;8375;33.594;-117.718;2022-11-18T08:36:22;8.97;;;2.83;;
16524;SDS011;8375;33.594;-117.718;2022-11-18T08:38:54;4.23;;;2.20;;
16524;SDS011;8375;33.594;-117.718;2022-11-18T08:41:25;4.97;;;2.10;;
16524;SDS011;8375;33.594;-117.718;2022-11-18T08:43:56;3.87;;;2.20;;
16524;SDS011;8375;33.594;-117.718;2022-11-18T08:46:26;4.53;;;2.27;;
16524;SDS011;8375;33.594;-117.718;2022-11-18T08:48:55;5.40;;;2.27;;
16524;SDS011;8375;33.594;-117.718;2022-11-18T08:51:23;8.60;;;2.13;;
16524;SDS011;8375;33.594;-117.718;2022-11-18T08:53:53;6.63;;;2.20;;
16524;SDS011;8375;33.594;-117.718;2022-11-18T08:56:22;6.07;;;1.90;;
16524;SDS011;8375;33.594;-117.718;2022-11-18T08:58:51;5.43;;;2.30;;
16524;SDS011;8375;33.594;-117.718;2022-11-18T09:01:20;3.73;;;2.00;;
16524;SDS011;8375;33.594;-117.718;2022-11-18T09:03:51;3.97;;;1.90;;
16524;SDS011;8375;33.594;-117.718;2022-11-18T09:06:21;5.87;;;1.90;;
16524;SDS011;8375;33.594;-117.718;2022-11-18T09:08:51;3.27;;;1.67;;
16524;SDS011;8375;33.594;-117.718;2022-11-18T09:11:20;4.23;;;1.60;;
16524;SDS011;8375;33.594;-117.718;2022-11-18T09:13:53;4.53;;;1.73;;
16524;SDS011;8375;33.594;-117.718;2022-11-18T09:16:23;3.87;;;2.00;;
16524;SDS011;8375;33.594;-117.718;2022-11-18T09:18:55;5.47;;;1.90;;
16524;SDS011;8375;33.594;-117.718;2022-11-18T09:21:24;6.17;;;1.83;;
16524;SDS011;8375;33.594;-117.718;2022-11-18T09:23:53;3.77;;;1.70;;
16524;SDS011;8375;33.594;-117.718;2022-11-18T09:26:22;1.87;;;1.33;;
16524;SDS011;8375;33.594;-117.718;2022-11-18T09:28:52;3.20;;;1.50;;
16524;SDS011;8375;33.594;-117.718;2022-11-18T09:31:20;3.13;;;1.40;;
16524;SDS011;8375;33.594;-117.718;2022-11-18T09:33:49;2.77;;;1.33;;
16524;SDS011;8375;33.594;-117.718;2022-11-18T09:36:20;2.50;;;1.33;;
16524;SDS011;8375;33.594;-117.718;2022-11-18T09:38:50;3.73;;;1.40;;
16524;SDS011;8375;33.594;-117.718;2022-11-18T09:41:26;2.60;;;1.30;;
16524;SDS011;8375;33.594;-117.718;2022-11-18T09:44:08;3.60;;;1.50;;
16524;SDS011;8375;33.594;-117.718;2022-11-18T09:46:50;2.47;;;1.67;;
16524;SDS011;8375;33.594;-117.718;2022-11-18T09:49:30;2.30;;;1.40;;
16524;SDS011;8375;33.594;-117.718;2022-11-18T09:52:03;3.33;;;1.30;;
16524;SDS011;8375;33.594;-117.718;2022-11-18T09:54:34;2.70;;;1.60;;
16524;SDS011;8375;33.594;-117.718;2022-11-18T09:57:07;3.10;;;1.70;;
16524;SDS011;8375;33.594;-117.718;2022-11-18T09:59:41;4.87;;;1.80;;
16524;SDS011;8375;33.594;-117.718;2022-11-18T10:02:20;2.77;;;2.20;;
16524;SDS011;8375;33.594;-117.718;2022-11-18T10:04:54;6.90;;;2.67;;
16524;SDS011;8375;33.594;-117.718;2022-11-18T10:07:31;6.20;;;2.80;;
16524;SDS011;8375;33.594;-117.718;2022-11-18T10:10:10;4.03;;;1.90;;
16524;SDS011;8375;33.594;-117.718;2022-11-18T10:12:45;5.17;;;2.07;;
16524;SDS011;8375;33.594;-117.718;2022-11-18T10:15:20;4.13;;;1.70;;
16524;SDS011;8375;33.594;-117.718;2022-11-18T10:17:55;7.90;;;2.57;;
16524;SDS011;8375;33.594;-117.718;2022-11-18T10:20:32;3.73;;;2.03;;
16524;SDS011;8375;33.594;-117.718;2022-11-18T10:23:13;4.37;;;2.37;;
16524;SDS011;8375;33.594;-117.718;2022-11-18T10:25:46;6.57;;;3.20;;
16524;SDS011;8375;33.594;-117.718;2022-11-18T10:28:20;9.87;;;3.30;;
16524;SDS011;8375;33.594;-117.718;2022-11-18T10:30:50;6.13;;;2.97;;
16524;SDS011;8375;33.594;-117.718;2022-11-18T10:33:23;5.37;;;3.10;;
16524;SDS011;8375;33.594;-117.718;2022-11-18T10:39:05;10.53;;;3.40;;
16524;SDS011;8375;33.594;-117.718;2022-11-18T10:41:46;8.47;;;3.37;;
16524;SDS011;8375;33.594;-117.718;2022-11-18T10:44:28;9.80;;;4.17;;
16524;SDS011;8375;33.594;-117.718;2022-11-18T10:49:58;7.50;;;3.20;;
16524;SDS011;8375;33.594;-117.718;2022-11-18T10:52:28;8.80;;;3.57;;
16524;SDS011;8375;33.594;-117.718;2022-11-18T10:55:14;8.47;;;3.13;;
16524;SDS011;8375;33.594;-117.718;2022-11-18T10:57:47;6.60;;;2.30;;
16524;SDS011;8375;33.594;-117.718;2022-11-18T11:03:21;4.93;;;2.33;;
16524;SDS011;8375;33.594;-117.718;2022-11-18T11:06:13;4.10;;;2.50;;
16524;SDS011;8375;33.594;-117.718;2022-11-18T11:08:57;5.77;;;2.80;;
16524;SDS011;8375;33.594;-117.718;2022-11-18T11:11:30;6.37;;;2.93;;
16524;SDS011;8375;33.594;-117.718;2022-11-18T11:14:04;4.47;;;2.50;;
16524;SDS011;8375;33.594;-117.718;2022-11-18T11:16:42;7.87;;;2.97;;
16524;SDS011;8375;33.594;-117.718;2022-11-18T11:19:16;5.40;;;2.50;;
16524;SDS011;8375;33.594;-117.718;2022-11-18T11:21:50;6.70;;;2.80;;
16524;SDS011;8375;33.594;-117.718;2022-11-18T11:24:19;6.57;;;2.63;;
16524;SDS011;8375;33.594;-117.718;2022-11-18T11:26:53;6.40;;;2.00;;
16524;SDS011;8375;33.594;-117.718;2022-11-18T11:29:33;6.87;;;2.27;;
16524;SDS011;8375;33.594;-117.718;2022-11-18T11:32:14;4.07;;;2.10;;
16524;SDS011;8375;33.594;-117.718;2022-11-18T11:34:54;7.13;;;2.20;;
16524;SDS011;8375;33.594;-117.718;2022-11-18T11:37:32;3.53;;;2.20;;
16524;SDS011;8375;33.594;-117.718;2022-11-18T11:40:19;6.80;;;2.60;;
16524;SDS011;8375;33.594;-117.718;2022-11-18T11:43:04;5.73;;;2.23;;
16524;SDS011;8375;33.594;-117.718;2022-11-18T11:45:46;4.20;;;2.10;;
16524;SDS011;8375;33.594;-117.718;2022-11-18T11:48:33;3.60;;;1.80;;
16524;SDS011;8375;33.594;-117.718;2022-11-18T11:51:14;6.70;;;2.30;;
16524;SDS011;8375;33.594;-117.718;2022-11-18T11:54:00;3.97;;;2.17;;
16524;SDS011;8375;33.594;-117.718;2022-11-18T11:56:48;5.87;;;2.17;;
16524;SDS011;8375;33.594;-117.718;2022-11-18T11:59:26;3.33;;;1.70;;
16524;SDS011;8375;33.594;-117.718;2022-11-18T12:02:10;3.37;;;1.80;;
16524;SDS011;8375;33.594;-117.718;2022-11-18T12:04:58;3.23;;;1.93;;
16524;SDS011;8375;33.594;-117.718;2022-11-18T12:07:36;3.27;;;1.57;;
16524;SDS011;8375;33.594;-117.718;2022-11-18T12:10:14;4.80;;;2.00;;
16524;SDS011;8375;33.594;-117.718;2022-11-18T12:12:51;5.23;;;2.00;;
16524;SDS011;8375;33.594;-117.718;2022-11-18T12:15:42;4.60;;;1.80;;
16524;SDS011;8375;33.594;-117.718;2022-11-18T12:18:19;11.40;;;2.80;;
16524;SDS011;8375;33.594;-117.718;2022-11-18T12:20:51;7.53;;;2.00;;
16524;SDS011;8375;33.594;-117.718;2022-11-18T12:23:20;3.73;;;1.97;;
16524;SDS011;8375;33.594;-117.718;2022-11-18T12:25:58;7.37;;;2.17;;
16524;SDS011;8375;33.594;-117.718;2022-11-18T12:28:32;5.97;;;2.00;;
16524;SDS011;8375;33.594;-117.718;2022-11-18T12:33:59;3.17;;;1.70;;
16524;SDS011;8375;33.594;-117.718;2022-11-18T12:36:32;3.20;;;1.73;;
16524;SDS011;8375;33.594;-117.718;2022-11-18T12:42:32;4.27;;;1.70;;
16524;SDS011;8375;33.594;-117.718;2022-11-18T12:45:36;5.97;;;2.30;;
16524;SDS011;8375;33.594;-117.718;2022-11-18T12:54:24;4.10;;;1.80;;
16524;SDS011;8375;33.594;-117.718;2022-11-18T12:56:54;4.50;;;1.80;;
16524;SDS011;8375;33.594;-117.718;2022-11-18T12:59:26;5.00;;;2.10;;
16524;SDS011;8375;33.594;-117.718;2022-11-18T13:02:16;3.27;;;2.60;;
16524;SDS011;8375;33.594;-117.718;2022-11-18T13:05:04;2.40;;;1.60;;
16524;SDS011;8375;33.594;-117.718;2022-11-18T13:07:38;4.60;;;2.00;;
16524;SDS011;8375;33.594;-117.718;2022-11-18T13:10:28;2.60;;;1.50;;
16524;SDS011;8375;33.594;-117.718;2022-11-18T13:12:59;5.77;;;2.10;;
16524;SDS011;8375;33.594;-117.718;2022-11-18T13:15:28;4.80;;;1.60;;
16524;SDS011;8375;33.594;-117.718;2022-11-18T13:18:14;8.33;;;2.67;;
16524;SDS011;8375;33.594;-117.718;2022-11-18T13:20:54;2.40;;;1.80;;
16524;SDS011;8375;33.594;-117.718;2022-11-18T13:23:25;3.00;;;1.63;;
16524;SDS011;8375;33.594;-117.718;2022-11-18T13:26:14;3.80;;;2.20;;
16524;SDS011;8375;33.594;-117.718;2022-11-18T13:28:51;8.63;;;2.47;;
16524;SDS011;8375;33.594;-117.718;2022-11-18T13:31:31;8.27;;;2.60;;
16524;SDS011;8375;33.594;-117.718;2022-11-18T13:34:09;3.00;;;2.10;;
16524;SDS011;8375;33.594;-117.718;2022-11-18T13:36:46;6.87;;;2.20;;
16524;SDS011;8375;33.594;-117.718;2022-11-18T13:39:17;3.30;;;2.00;;
16524;SDS011;8375;33.594;-117.718;2022-11-18T13:42:02;4.40;;;1.80;;
16524;SDS011;8375;33.594;-117.718;2022-11-18T13:44:32;4.83;;;1.90;;
16524;SDS011;8375;33.594;-117.718;2022-11-18T13:47:04;3.37;;;1.87;;
16524;SDS011;8375;33.594;-117.718;2022-11-18T13:49:44;5.17;;;2.00;;
16524;SDS011;8375;33.594;-117.718;2022-11-18T13:52:21;2.67;;;1.90;;
16524;SDS011;8375;33.594;-117.718;2022-11-18T13:54:54;3.23;;;1.83;;
16524;SDS011;8375;33.594;-117.718;2022-11-18T13:57:24;4.87;;;2.10;;
16524;SDS011;8375;33.594;-117.718;2022-11-18T13:59:55;4.37;;;1.97;;
16524;SDS011;8375;33.594;-117.718;2022-11-18T14:02:30;8.07;;;2.03;;
16524;SDS011;8375;33.594;-117.718;2022-11-18T14:04:59;6.50;;;1.97;;
16524;SDS011;8375;33.594;-117.718;2022-11-18T14:07:30;4.23;;;1.90;;
16524;SDS011;8375;33.594;-117.718;2022-11-18T14:10:01;3.93;;;2.03;;
16524;SDS011;8375;33.594;-117.718;2022-11-18T14:12:33;4.10;;;2.17;;
16524;SDS011;8375;33.594;-117.718;2022-11-18T14:15:12;5.37;;;2.10;;
16524;SDS011;8375;33.594;-117.718;2022-11-18T14:17:52;3.17;;;1.80;;
16524;SDS011;8375;33.594;-117.718;2022-11-18T14:20:22;2.97;;;2.13;;
16524;SDS011;8375;33.594;-117.718;2022-11-18T14:22:54;4.53;;;2.67;;
16524;SDS011;8375;33.594;-117.718;2022-11-18T14:25:25;4.93;;;2.23;;
16524;SDS011;8375;33.594;-117.718;2022-11-18T14:27:57;4.67;;;2.23;;
16524;SDS011;8375;33.594;-117.718;2022-11-18T14:30:36;7.03;;;2.50;;
16524;SDS011;8375;33.594;-117.718;2022-11-18T14:33:13;11.93;;;2.70;;
16524;SDS011;8375;33.594;-117.718;2022-11-18T14:35:47;8.20;;;2.50;;
16524;SDS011;8375;33.594;-117.718;2022-11-18T14:38:19;11.83;;;3.33;;
16524;SDS011;8375;33.594;-117.718;2022-11-18T14:40:54;4.60;;;2.30;;
16524;SDS011;8375;33.594;-117.718;2022-11-18T14:43:24;4.97;;;2.27;;
16524;SDS011;8375;33.594;-117.718;2022-11-18T14:45:53;7.43;;;2.40;;
16524;SDS011;8375;33.594;-117.718;2022-11-18T14:48:24;7.53;;;2.53;;
16524;SDS011;8375;33.594;-117.718;2022-11-18T14:50:54;5.00;;;2.40;;
16524;SDS011;8375;33.594;-117.718;2022-11-18T14:53:24;6.37;;;2.30;;
16524;SDS011;8375;33.594;-117.718;2022-11-18T14:55:53;7.23;;;2.60;;
16524;SDS011;8375;33.594;-117.718;2022-11-18T14:58:24;5.50;;;2.40;;
16524;SDS011;8375;33.594;-117.718;2022-11-18T15:00:53;6.37;;;2.90;;
16524;SDS011;8375;33.594;-117.718;2022-11-18T15:03:22;5.67;;;2.10;;
16524;SDS011;8375;33.594;-117.718;2022-11-18T15:05:50;6.20;;;2.57;;
16524;SDS011;8375;33.594;-117.718;2022-11-18T15:08:19;8.73;;;3.00;;
16524;SDS011;8375;33.594;-117.718;2022-11-18T15:10:49;9.93;;;2.90;;
16524;SDS011;8375;33.594;-117.718;2022-11-18T15:13:17;10.30;;;2.90;;
16524;SDS011;8375;33.594;-117.718;2022-11-18T15:15:46;4.10;;;2.50;;
16524;SDS011;8375;33.594;-117.718;2022-11-18T15:18:14;6.33;;;2.63;;
16524;SDS011;8375;33.594;-117.718;2022-11-18T15:20:43;5.17;;;2.57;;
16524;SDS011;8375;33.594;-117.718;2022-11-18T15:23:11;6.43;;;2.50;;